createdAt,value
2024-01-20T00:00:23.569Z,614.00
2024-01-20T00:01:23.631Z,614.00
2024-01-20T00:02:23.609Z,617.00
2024-01-20T00:03:23.573Z,617.00
2024-01-20T00:04:23.628Z,617.00
2024-01-20T00:05:23.672Z,616.00
2024-01-20T00:06:23.712Z,617.00
2024-01-20T00:07:23.633Z,617.00
2024-01-20T00:08:23.725Z,618.00
2024-01-20T00:09:28.818Z,616.00
2024-01-20T00:10:24.686Z,614.00
2024-01-20T00:11:23.697Z,612.00
2024-01-20T00:12:23.685Z,610.00
2024-01-20T00:13:23.685Z,611.00
2024-01-20T00:14:23.703Z,613.00
2024-01-20T00:15:23.691Z,610.00
2024-01-20T00:16:23.669Z,612.00
2024-01-20T00:17:26.885Z,612.00
2024-01-20T00:18:23.774Z,612.00
2024-01-20T00:19:23.739Z,611.00
2024-01-20T00:20:23.726Z,614.00
2024-01-20T00:21:23.696Z,614.00
2024-01-20T00:22:24.067Z,614.00
2024-01-20T00:23:23.716Z,615.00
2024-01-20T00:24:23.697Z,618.00
2024-01-20T00:25:23.700Z,618.00
2024-01-20T00:26:23.737Z,618.00
2024-01-20T00:27:23.730Z,618.00
2024-01-20T00:28:23.695Z,616.00
2024-01-20T00:29:23.790Z,620.00
2024-01-20T00:30:23.711Z,618.00
2024-01-20T00:31:23.707Z,621.00
2024-01-20T00:32:23.789Z,621.00
2024-01-20T00:33:23.784Z,620.00
2024-01-20T00:34:23.708Z,621.00
2024-01-20T00:35:23.732Z,625.00
2024-01-20T00:36:23.709Z,622.00
2024-01-20T00:37:23.743Z,623.00
2024-01-20T00:38:23.779Z,623.00
2024-01-20T00:39:23.715Z,625.00
2024-01-20T00:40:23.735Z,627.00
2024-01-20T00:41:23.891Z,627.00
2024-01-20T00:42:23.737Z,630.00
2024-01-20T00:43:23.732Z,630.00
2024-01-20T00:44:23.807Z,626.00
2024-01-20T00:45:23.723Z,629.00
2024-01-20T00:46:23.749Z,630.00
2024-01-20T00:47:23.812Z,629.00
2024-01-20T00:48:23.802Z,631.00
2024-01-20T00:49:23.734Z,631.00
2024-01-20T00:50:23.788Z,632.00
2024-01-20T00:51:23.748Z,632.00
2024-01-20T00:52:23.801Z,633.00
2024-01-20T00:53:23.819Z,636.00
2024-01-20T00:54:23.786Z,637.00
2024-01-20T00:55:23.844Z,635.00
2024-01-20T00:56:23.947Z,638.00
2024-01-20T00:57:23.924Z,637.00
2024-01-20T00:58:23.914Z,638.00
2024-01-20T00:59:23.985Z,638.00
2024-01-20T01:00:23.965Z,641.00
2024-01-20T01:01:23.944Z,641.00
2024-01-20T01:02:24.031Z,640.00
2024-01-20T01:03:24.060Z,641.00
2024-01-20T01:04:23.996Z,638.00
2024-01-20T01:05:24.107Z,638.00
2024-01-20T01:06:24.128Z,637.00
2024-01-20T01:07:24.212Z,638.00
2024-01-20T01:08:24.296Z,639.00
2024-01-20T01:09:24.301Z,638.00
2024-01-20T01:10:24.390Z,637.00
2024-01-20T01:11:24.460Z,633.00
2024-01-20T01:12:24.475Z,633.00
2024-01-20T01:13:24.586Z,635.00
2024-01-20T01:14:24.704Z,638.00
2024-01-20T01:15:24.625Z,634.00
2024-01-20T01:16:24.663Z,632.00
2024-01-20T01:17:24.718Z,632.00
2024-01-20T01:18:24.694Z,632.00
2024-01-20T01:19:24.688Z,636.00
2024-01-20T01:20:24.754Z,632.00
2024-01-20T01:21:24.780Z,634.00
2024-01-20T01:22:24.802Z,630.00
2024-01-20T01:23:24.885Z,631.00
2024-01-20T01:24:24.825Z,630.00
2024-01-20T01:25:24.849Z,635.00
2024-01-20T01:26:26.429Z,632.00
2024-01-20T01:27:24.955Z,632.00
2024-01-20T01:28:24.868Z,631.00
2024-01-20T01:29:24.956Z,635.00
2024-01-20T01:30:24.854Z,636.00
2024-01-20T01:31:24.871Z,634.00
2024-01-20T01:32:24.942Z,635.00
2024-01-20T01:33:24.968Z,630.00
2024-01-20T01:34:24.860Z,631.00
2024-01-20T01:35:24.905Z,631.00
2024-01-20T01:36:24.855Z,628.00
2024-01-20T01:37:24.885Z,624.00
2024-01-20T01:38:24.869Z,625.00
2024-01-20T01:39:24.880Z,628.00
2024-01-20T01:40:24.872Z,625.00
2024-01-20T01:41:24.857Z,619.00
2024-01-20T01:42:24.863Z,620.00
2024-01-20T01:43:24.873Z,620.00
2024-01-20T01:44:24.879Z,617.00
2024-01-20T01:45:24.873Z,617.00
2024-01-20T01:46:24.862Z,618.00
2024-01-20T01:47:24.882Z,611.00
2024-01-20T01:48:24.968Z,615.00
2024-01-20T01:49:24.906Z,615.00
2024-01-20T01:50:24.945Z,612.00
2024-01-20T01:51:24.879Z,612.00
2024-01-20T01:52:24.886Z,611.00
2024-01-20T01:53:24.963Z,613.00
2024-01-20T01:54:24.985Z,611.00
2024-01-20T01:55:24.909Z,610.00
2024-01-20T01:56:24.883Z,612.00
2024-01-20T01:57:24.952Z,610.00
2024-01-20T01:58:24.891Z,610.00
2024-01-20T01:59:24.895Z,610.00
2024-01-20T02:00:24.903Z,613.00
2024-01-20T02:01:24.911Z,610.00
2024-01-20T02:02:24.898Z,608.00
2024-01-20T02:03:25.310Z,612.00
2024-01-20T02:04:24.972Z,609.00
2024-01-20T02:05:24.902Z,613.00
2024-01-20T02:06:24.982Z,606.00
2024-01-20T02:07:24.906Z,610.00
2024-01-20T02:08:24.889Z,612.00
2024-01-20T02:09:24.962Z,611.00
2024-01-20T02:10:24.904Z,612.00
2024-01-20T02:11:24.905Z,612.00
2024-01-20T02:12:24.951Z,614.00
2024-01-20T02:13:24.918Z,616.00
2024-01-20T02:14:24.922Z,615.00
2024-01-20T02:15:24.954Z,612.00
2024-01-20T02:16:24.921Z,612.00
2024-01-20T02:17:24.926Z,609.00
2024-01-20T02:18:25.092Z,613.00
2024-01-20T02:19:24.954Z,611.00
2024-01-20T02:20:24.973Z,613.00
2024-01-20T02:21:24.945Z,613.00
2024-01-20T02:22:24.936Z,613.00
2024-01-20T02:23:24.937Z,618.00
2024-01-20T02:24:24.947Z,611.00
2024-01-20T02:25:24.937Z,615.00
2024-01-20T02:26:24.931Z,614.00
2024-01-20T02:27:25.090Z,615.00
2024-01-20T02:28:24.924Z,611.00
2024-01-20T02:29:24.948Z,615.00
2024-01-20T02:30:25.057Z,613.00
2024-01-20T02:31:24.948Z,617.00
2024-01-20T02:32:25.051Z,614.00
2024-01-20T02:33:25.083Z,614.00
2024-01-20T02:34:25.075Z,610.00
2024-01-20T02:35:25.151Z,619.00
2024-01-20T02:36:25.212Z,619.00
2024-01-20T02:37:25.247Z,618.00
2024-01-20T02:38:25.318Z,617.00
2024-01-20T02:39:25.467Z,620.00
2024-01-20T02:40:25.465Z,619.00
2024-01-20T02:41:25.549Z,617.00
2024-01-20T02:42:25.605Z,616.00
2024-01-20T02:43:25.591Z,615.00
2024-01-20T02:44:25.614Z,614.00
2024-01-20T02:45:25.707Z,613.00
2024-01-20T02:46:25.674Z,611.00
2024-01-20T02:47:25.803Z,616.00
2024-01-20T02:48:25.875Z,617.00
2024-01-20T02:49:25.803Z,616.00
2024-01-20T02:50:25.777Z,612.00
2024-01-20T02:51:25.887Z,613.00
2024-01-20T02:52:25.913Z,615.00
2024-01-20T02:53:25.986Z,614.00
2024-01-20T02:54:26.110Z,617.00
2024-01-20T02:55:26.141Z,616.00
2024-01-20T02:56:26.187Z,613.00
2024-01-20T02:57:26.325Z,613.00
2024-01-20T02:58:26.330Z,616.00
2024-01-20T02:59:26.418Z,613.00
2024-01-20T03:00:26.551Z,619.00
2024-01-20T03:01:26.684Z,612.00
2024-01-20T03:02:26.633Z,615.00
2024-01-20T03:03:26.789Z,611.00
2024-01-20T03:04:26.821Z,613.00
2024-01-20T03:05:26.779Z,619.00
2024-01-20T03:06:26.850Z,607.00
2024-01-20T03:07:26.831Z,613.00
2024-01-20T03:08:26.851Z,616.00
2024-01-20T03:09:26.941Z,607.00
2024-01-20T03:10:26.927Z,608.00
2024-01-20T03:11:26.955Z,617.00
2024-01-20T03:12:27.020Z,614.00
2024-01-20T03:13:26.984Z,610.00
2024-01-20T03:14:27.005Z,612.00
2024-01-20T03:15:27.089Z,606.00
2024-01-20T03:16:27.139Z,611.00
2024-01-20T03:17:27.237Z,611.00
2024-01-20T03:18:27.302Z,613.00
2024-01-20T03:19:27.414Z,614.00
2024-01-20T03:20:27.408Z,614.00
2024-01-20T03:21:27.513Z,612.00
2024-01-20T03:22:27.491Z,612.00
2024-01-20T03:23:27.508Z,614.00
2024-01-20T03:24:27.636Z,616.00
2024-01-20T03:25:27.599Z,616.00
2024-01-20T03:26:27.635Z,620.00
2024-01-20T03:27:27.719Z,622.00
2024-01-20T03:28:27.686Z,619.00
2024-01-20T03:29:27.774Z,621.00
2024-01-20T03:30:27.811Z,624.00
2024-01-20T03:31:27.784Z,629.00
2024-01-20T03:32:27.847Z,626.00
2024-01-20T03:33:27.966Z,630.00
2024-01-20T03:34:28.158Z,622.00
2024-01-20T03:35:27.933Z,630.00
2024-01-20T03:36:28.038Z,628.00
2024-01-20T03:37:28.012Z,628.00
2024-01-20T03:38:28.049Z,627.00
2024-01-20T03:39:28.119Z,631.00
2024-01-20T03:40:29.835Z,624.00
2024-01-20T03:41:28.150Z,627.00
2024-01-20T03:42:28.210Z,632.00
2024-01-20T03:43:28.192Z,629.00
2024-01-20T03:44:28.245Z,628.00
2024-01-20T03:45:28.380Z,631.00
2024-01-20T03:46:28.278Z,631.00
2024-01-20T03:47:29.649Z,630.00
2024-01-20T03:48:28.685Z,627.00
2024-01-20T03:49:28.578Z,631.00
2024-01-20T03:50:28.490Z,629.00
2024-01-20T03:51:28.694Z,628.00
2024-01-20T03:52:28.490Z,628.00
2024-01-20T03:53:28.531Z,628.00
2024-01-20T03:54:28.649Z,628.00
2024-01-20T03:55:28.595Z,627.00
2024-01-20T03:56:28.633Z,633.00
2024-01-20T03:57:28.768Z,629.00
2024-01-20T03:58:28.724Z,627.00
2024-01-20T03:59:28.780Z,625.00
2024-01-20T04:00:28.880Z,624.00
2024-01-20T04:01:28.845Z,625.00
2024-01-20T04:02:28.888Z,622.00
2024-01-20T04:03:29.014Z,620.00
2024-01-20T04:04:28.975Z,623.00
2024-01-20T04:05:29.035Z,614.00
2024-01-20T04:06:29.164Z,620.00
2024-01-20T04:07:29.154Z,620.00
2024-01-20T04:08:29.206Z,619.00
2024-01-20T04:09:29.289Z,616.00
2024-01-20T04:10:29.337Z,618.00
2024-01-20T04:11:29.425Z,620.00
2024-01-20T04:12:29.499Z,617.00
2024-01-20T04:13:29.491Z,614.00
2024-01-20T04:14:29.559Z,611.00
2024-01-20T04:15:29.715Z,617.00
2024-01-20T04:16:29.702Z,615.00
2024-01-20T04:17:29.804Z,617.00
2024-01-20T04:18:29.920Z,614.00
2024-01-20T04:19:29.903Z,617.00
2024-01-20T04:20:29.900Z,614.00
2024-01-20T04:21:29.948Z,611.00
2024-01-20T04:22:30.006Z,610.00
2024-01-20T04:23:30.043Z,614.00
2024-01-20T04:24:30.145Z,609.00
2024-01-20T04:25:30.123Z,611.00
2024-01-20T04:26:30.130Z,611.00
2024-01-20T04:27:30.218Z,611.00
2024-01-20T04:28:30.161Z,611.00
2024-01-20T04:29:30.185Z,611.00
2024-01-20T04:30:30.235Z,614.00
2024-01-20T04:31:30.247Z,612.00
2024-01-20T04:32:30.286Z,615.00
2024-01-20T04:33:30.398Z,615.00
2024-01-20T04:34:30.390Z,616.00
2024-01-20T04:35:37.649Z,600.00
2024-01-20T04:36:37.653Z,600.00
2024-01-20T04:37:37.664Z,600.00
2024-01-20T04:38:37.674Z,600.00
2024-01-20T04:39:39.245Z,600.00
2024-01-20T04:40:37.650Z,603.00
2024-01-20T04:41:37.661Z,606.00
2024-01-20T04:42:37.682Z,604.00
2024-01-20T04:43:37.682Z,604.00
2024-01-20T04:44:37.670Z,604.00
2024-01-20T04:45:37.744Z,602.00
2024-01-20T04:46:37.672Z,605.00
2024-01-20T04:47:37.701Z,605.00
2024-01-20T04:48:37.863Z,605.00
2024-01-20T04:49:37.774Z,603.00
2024-01-20T04:50:37.667Z,603.00
2024-01-20T04:51:37.745Z,605.00
2024-01-20T04:52:37.675Z,603.00
2024-01-20T04:53:37.720Z,608.00
2024-01-20T04:54:37.690Z,602.00
2024-01-20T04:55:37.673Z,601.00
2024-01-20T04:56:37.686Z,602.00
2024-01-20T04:57:37.735Z,607.00
2024-01-20T04:58:37.762Z,603.00
2024-01-20T04:59:37.774Z,603.00
2024-01-20T05:00:38.077Z,601.00
2024-01-20T05:01:40.591Z,606.00
2024-01-20T05:02:37.843Z,602.00
2024-01-20T05:03:37.984Z,606.00
2024-01-20T05:04:37.882Z,605.00
2024-01-20T05:05:37.893Z,605.00
2024-01-20T05:06:38.083Z,609.00
2024-01-20T05:07:37.856Z,605.00
2024-01-20T05:08:37.915Z,607.00
2024-01-20T05:09:37.912Z,610.00
2024-01-20T05:10:37.857Z,607.00
2024-01-20T05:11:37.882Z,605.00
2024-01-20T05:12:37.963Z,605.00
2024-01-20T05:13:37.885Z,607.00
2024-01-20T05:14:37.884Z,614.00
2024-01-20T05:15:37.939Z,610.00
2024-01-20T05:16:37.864Z,610.00
2024-01-20T05:17:37.886Z,608.00
2024-01-20T05:18:38.006Z,609.00
2024-01-20T05:19:38.007Z,606.00
2024-01-20T05:20:37.913Z,610.00
2024-01-20T05:21:37.897Z,608.00
2024-01-20T05:22:37.895Z,606.00
2024-01-20T05:23:37.913Z,609.00
2024-01-20T05:24:37.927Z,609.00
2024-01-20T05:25:37.943Z,613.00
2024-01-20T05:26:37.923Z,609.00
2024-01-20T05:27:38.030Z,612.00
2024-01-20T05:28:37.902Z,607.00
2024-01-20T05:29:37.918Z,612.00
2024-01-20T05:30:37.922Z,605.00
2024-01-20T05:31:37.910Z,608.00
2024-01-20T05:32:37.926Z,607.00
2024-01-20T05:33:38.099Z,606.00
2024-01-20T05:34:37.984Z,609.00
2024-01-20T05:35:37.918Z,612.00
2024-01-20T05:36:37.975Z,610.00
2024-01-20T05:37:37.925Z,612.00
2024-01-20T05:38:37.925Z,611.00
2024-01-20T05:39:37.980Z,614.00
2024-01-20T05:40:37.932Z,610.00
2024-01-20T05:41:37.941Z,614.00
2024-01-20T05:42:38.027Z,618.00
2024-01-20T05:43:37.945Z,617.00
2024-01-20T05:44:38.075Z,615.00
2024-01-20T05:45:38.071Z,617.00
2024-01-20T05:46:37.945Z,614.00
2024-01-20T05:47:37.953Z,617.00
2024-01-20T05:48:38.049Z,617.00
2024-01-20T05:49:38.022Z,619.00
2024-01-20T05:50:37.944Z,616.00
2024-01-20T05:51:37.947Z,619.00
2024-01-20T05:52:37.943Z,618.00
2024-01-20T05:53:37.976Z,623.00
2024-01-20T05:54:38.084Z,626.00
2024-01-20T05:55:37.962Z,624.00
2024-01-20T05:56:37.961Z,625.00
2024-01-20T05:57:37.999Z,624.00
2024-01-20T05:58:38.016Z,628.00
2024-01-20T05:59:37.960Z,626.00
2024-01-20T06:00:38.117Z,623.00
2024-01-20T06:01:37.979Z,622.00
2024-01-20T06:02:37.964Z,623.00
2024-01-20T06:03:38.119Z,628.00
2024-01-20T06:04:37.973Z,627.00
2024-01-20T06:05:37.963Z,626.00
2024-01-20T06:06:38.043Z,630.00
2024-01-20T06:07:37.983Z,627.00
2024-01-20T06:08:37.978Z,630.00
2024-01-20T06:09:38.036Z,631.00
2024-01-20T06:10:38.088Z,630.00
2024-01-20T06:11:38.003Z,628.00
2024-01-20T06:12:37.990Z,629.00
2024-01-20T06:13:38.013Z,630.00
2024-01-20T06:14:38.002Z,631.00
2024-01-20T06:15:38.048Z,631.00
2024-01-20T06:16:37.982Z,630.00
2024-01-20T06:17:38.064Z,630.00
2024-01-20T06:18:38.099Z,631.00
2024-01-20T06:19:38.066Z,632.00
2024-01-20T06:20:37.992Z,636.00
2024-01-20T06:21:38.052Z,635.00
2024-01-20T06:22:38.041Z,643.00
2024-01-20T06:23:38.148Z,642.00
2024-01-20T06:24:38.130Z,640.00
2024-01-20T06:25:38.167Z,640.00
2024-01-20T06:26:38.245Z,641.00
2024-01-20T06:27:38.277Z,647.00
2024-01-20T06:28:38.333Z,646.00
2024-01-20T06:29:38.309Z,643.00
2024-01-20T06:30:38.430Z,645.00
2024-01-20T06:31:38.360Z,647.00
2024-01-20T06:32:38.385Z,649.00
2024-01-20T06:33:38.568Z,651.00
2024-01-20T06:34:38.500Z,651.00
2024-01-20T06:35:38.411Z,652.00
2024-01-20T06:36:38.452Z,659.00
2024-01-20T06:37:38.454Z,658.00
2024-01-20T06:38:38.525Z,660.00
2024-01-20T06:39:38.573Z,664.00
2024-01-20T06:40:38.636Z,661.00
2024-01-20T06:41:39.378Z,664.00
2024-01-20T06:42:38.625Z,662.00
2024-01-20T06:43:38.629Z,665.00
2024-01-20T06:44:38.602Z,666.00
2024-01-20T06:45:38.642Z,679.00
2024-01-20T06:46:38.603Z,673.00
2024-01-20T06:47:38.808Z,666.00
2024-01-20T06:48:38.898Z,674.00
2024-01-20T06:49:38.943Z,684.00
2024-01-20T06:50:38.801Z,684.00
2024-01-20T06:51:38.862Z,674.00
2024-01-20T06:52:38.898Z,688.00
2024-01-20T06:53:38.950Z,700.00
2024-01-20T06:54:39.000Z,703.00
2024-01-20T06:55:39.042Z,700.00
2024-01-20T06:56:39.116Z,703.00
2024-01-20T06:57:39.097Z,697.00
2024-01-20T06:58:39.098Z,707.00
2024-01-20T06:59:39.073Z,708.00
2024-01-20T07:00:39.217Z,718.00
2024-01-20T07:01:39.135Z,710.00
2024-01-20T07:02:39.196Z,725.00
2024-01-20T07:03:39.319Z,738.00
2024-01-20T07:04:39.310Z,723.00
2024-01-20T07:05:39.394Z,737.00
2024-01-20T07:06:39.480Z,741.00
2024-01-20T07:07:39.479Z,739.00
2024-01-20T07:08:39.525Z,733.00
2024-01-20T07:09:39.603Z,743.00
2024-01-20T07:10:39.624Z,746.00
2024-01-20T07:11:39.682Z,755.00
2024-01-20T07:12:39.855Z,762.00
2024-01-20T07:13:39.817Z,756.00
2024-01-20T07:14:39.872Z,768.00
2024-01-20T07:15:39.960Z,770.00
2024-01-20T07:16:39.894Z,768.00
2024-01-20T07:17:39.930Z,767.00
2024-01-20T07:18:39.947Z,769.00
2024-01-20T07:19:39.934Z,776.00
2024-01-20T07:20:39.924Z,781.00
2024-01-20T07:21:39.946Z,784.00
2024-01-20T07:22:39.944Z,785.00
2024-01-20T07:23:39.989Z,795.00
2024-01-20T07:24:40.026Z,793.00
2024-01-20T07:25:39.976Z,810.00
2024-01-20T07:26:39.967Z,808.00
2024-01-20T07:27:40.030Z,814.00
2024-01-20T07:28:40.101Z,817.00
2024-01-20T07:29:40.121Z,827.00
2024-01-20T07:30:40.229Z,832.00
2024-01-20T07:31:40.213Z,829.00
2024-01-20T07:32:40.305Z,840.00
2024-01-20T07:33:40.344Z,834.00
2024-01-20T07:34:40.306Z,841.00
2024-01-20T07:35:40.300Z,845.00
2024-01-20T07:36:40.402Z,846.00
2024-01-20T07:37:40.425Z,844.00
2024-01-20T07:38:40.478Z,850.00
2024-01-20T07:39:40.551Z,861.00
2024-01-20T07:40:40.560Z,858.00
2024-01-20T07:41:40.613Z,851.00
2024-01-20T07:42:40.753Z,855.00
2024-01-20T07:43:40.682Z,840.00
2024-01-20T07:44:40.747Z,852.00
2024-01-20T07:45:40.853Z,840.00
2024-01-20T07:46:40.809Z,838.00
2024-01-20T07:47:40.862Z,842.00
2024-01-20T07:48:41.062Z,832.00
2024-01-20T07:49:40.924Z,826.00
2024-01-20T07:50:40.948Z,824.00
2024-01-20T07:51:41.896Z,814.00
2024-01-20T07:52:41.239Z,826.00
2024-01-20T07:53:41.162Z,826.00
2024-01-20T07:54:41.246Z,818.00
2024-01-20T07:55:41.257Z,832.00
2024-01-20T07:56:41.294Z,827.00
2024-01-20T07:57:41.406Z,819.00
2024-01-20T07:58:41.416Z,839.00
2024-01-20T07:59:41.523Z,831.00
2024-01-20T08:00:41.629Z,836.00
2024-01-20T08:01:41.567Z,839.00
2024-01-20T08:02:41.655Z,834.00
2024-01-20T08:03:41.755Z,832.00
2024-01-20T08:04:41.765Z,831.00
2024-01-20T08:05:41.758Z,829.00
2024-01-20T08:06:41.911Z,822.00
2024-01-20T08:07:41.869Z,820.00
2024-01-20T08:08:41.892Z,818.00
2024-01-20T08:09:41.945Z,825.00
2024-01-20T08:10:41.992Z,808.00
2024-01-20T08:11:42.068Z,815.00
2024-01-20T08:12:42.162Z,804.00
2024-01-20T08:13:42.202Z,801.00
2024-01-20T08:14:42.241Z,807.00
2024-01-20T08:15:42.351Z,815.00
2024-01-20T08:16:42.304Z,826.00
2024-01-20T08:17:44.361Z,824.00
2024-01-20T08:18:42.498Z,835.00
2024-01-20T08:19:42.429Z,828.00
2024-01-20T08:20:42.371Z,819.00
2024-01-20T08:21:42.388Z,820.00
2024-01-20T08:22:42.397Z,801.00
2024-01-20T08:23:42.475Z,801.00
2024-01-20T08:24:42.519Z,802.00
2024-01-20T08:25:42.518Z,792.00
2024-01-20T08:26:42.525Z,798.00
2024-01-20T08:27:42.529Z,792.00
2024-01-20T08:28:42.613Z,784.00
2024-01-20T08:29:42.635Z,783.00
2024-01-20T08:30:42.786Z,781.00
2024-01-20T08:31:42.796Z,772.00
2024-01-20T08:32:42.911Z,776.00
2024-01-20T08:33:43.046Z,786.00
2024-01-20T08:34:42.947Z,772.00
2024-01-20T08:35:42.897Z,776.00
2024-01-20T08:36:42.899Z,774.00
2024-01-20T08:37:42.912Z,772.00
2024-01-20T08:38:42.950Z,774.00
2024-01-20T08:39:42.939Z,770.00
2024-01-20T08:40:42.974Z,776.00
2024-01-20T08:41:43.035Z,766.00
2024-01-20T08:42:43.107Z,766.00
2024-01-20T08:43:43.192Z,768.00
2024-01-20T08:44:43.142Z,780.00
2024-01-20T08:45:43.260Z,780.00
2024-01-20T08:46:43.173Z,786.00
2024-01-20T08:47:43.205Z,792.00
2024-01-20T08:48:43.317Z,805.00
2024-01-20T08:49:43.245Z,799.00
2024-01-20T08:50:43.316Z,797.00
2024-01-20T08:51:43.369Z,800.00
2024-01-20T08:52:43.464Z,804.00
2024-01-20T08:53:43.523Z,809.00
2024-01-20T08:54:43.625Z,820.00
2024-01-20T08:55:43.640Z,826.00
2024-01-20T08:56:43.687Z,841.00
2024-01-20T08:57:43.738Z,830.00
2024-01-20T08:58:43.834Z,843.00
2024-01-20T08:59:43.880Z,841.00
2024-01-20T09:00:44.032Z,841.00
2024-01-20T09:01:44.018Z,839.00
2024-01-20T09:02:44.114Z,843.00
2024-01-20T09:03:44.215Z,833.00
2024-01-20T09:04:44.203Z,829.00
2024-01-20T09:05:44.363Z,829.00
2024-01-20T09:06:44.454Z,819.00
2024-01-20T09:07:44.431Z,825.00
2024-01-20T09:08:44.525Z,810.00
2024-01-20T09:09:44.576Z,812.00
2024-01-20T09:10:44.680Z,812.00
2024-01-20T09:11:44.659Z,791.00
2024-01-20T09:12:44.800Z,789.00
2024-01-20T09:13:44.794Z,788.00
2024-01-20T09:14:44.908Z,788.00
2024-01-20T09:15:44.987Z,777.00
2024-01-20T09:16:45.018Z,782.00
2024-01-20T09:17:45.912Z,776.00
2024-01-20T09:18:45.251Z,773.00
2024-01-20T09:19:45.233Z,767.00
2024-01-20T09:20:45.229Z,763.00
2024-01-20T09:21:45.165Z,769.00
2024-01-20T09:22:45.176Z,768.00
2024-01-20T09:23:45.185Z,759.00
2024-01-20T09:24:45.221Z,751.00
2024-01-20T09:25:45.201Z,738.00
2024-01-20T09:26:45.192Z,742.00
2024-01-20T09:27:45.241Z,739.00
2024-01-20T09:28:45.234Z,737.00
2024-01-20T09:29:45.254Z,741.00
2024-01-20T09:30:45.296Z,731.00
2024-01-20T09:31:45.294Z,724.00
2024-01-20T09:32:45.392Z,714.00
2024-01-20T09:33:45.517Z,726.00
2024-01-20T09:34:45.439Z,725.00
2024-01-20T09:35:45.311Z,717.00
2024-01-20T09:36:45.332Z,716.00
2024-01-20T09:37:45.350Z,715.00
2024-01-20T09:38:45.354Z,709.00
2024-01-20T09:39:45.360Z,699.00
2024-01-20T09:40:45.340Z,714.00
2024-01-20T09:41:45.363Z,701.00
2024-01-20T09:42:45.409Z,700.00
2024-01-20T09:43:45.418Z,699.00
2024-01-20T09:44:45.476Z,695.00
2024-01-20T09:45:45.596Z,704.00
2024-01-20T09:46:45.605Z,692.00
2024-01-20T09:47:45.729Z,694.00
2024-01-20T09:48:45.908Z,682.00
2024-01-20T09:49:45.889Z,680.00
2024-01-20T09:50:45.853Z,679.00
2024-01-20T09:51:45.938Z,670.00
2024-01-20T09:52:45.957Z,685.00
2024-01-20T09:53:46.055Z,675.00
2024-01-20T09:54:46.130Z,669.00
2024-01-20T09:55:46.139Z,674.00
2024-01-20T09:56:46.218Z,664.00
2024-01-20T09:57:46.276Z,662.00
2024-01-20T09:58:46.360Z,663.00
2024-01-20T09:59:46.385Z,658.00
2024-01-20T10:00:46.494Z,657.00
2024-01-20T10:01:46.582Z,660.00
2024-01-20T10:02:46.541Z,656.00
2024-01-20T10:03:46.686Z,652.00
2024-01-20T10:04:46.802Z,652.00
2024-01-20T10:05:46.726Z,654.00
2024-01-20T10:06:46.785Z,647.00
2024-01-20T10:07:46.751Z,649.00
2024-01-20T10:08:46.790Z,644.00
2024-01-20T10:09:46.829Z,649.00
2024-01-20T10:10:46.880Z,639.00
2024-01-20T10:11:46.924Z,637.00
2024-01-20T10:12:46.949Z,631.00
2024-01-20T10:13:46.986Z,629.00
2024-01-20T10:14:46.981Z,625.00
2024-01-20T10:15:47.137Z,619.00
2024-01-20T10:16:47.057Z,618.00
2024-01-20T10:17:47.223Z,614.00
2024-01-20T10:18:47.164Z,611.00
2024-01-20T10:19:47.170Z,611.00
2024-01-20T10:20:49.071Z,606.00
2024-01-20T10:21:47.221Z,607.00
2024-01-20T10:22:47.204Z,604.00
2024-01-20T10:23:47.219Z,600.00
2024-01-20T10:24:47.283Z,601.00
2024-01-20T10:25:47.353Z,601.00
2024-01-20T10:26:47.421Z,608.00
2024-01-20T10:27:47.493Z,601.00
2024-01-20T10:28:47.551Z,600.00
2024-01-20T10:29:47.531Z,601.00
2024-01-20T10:30:47.624Z,601.00
2024-01-20T10:31:47.573Z,600.00
2024-01-20T10:32:57.859Z,604.00
2024-01-20T10:33:51.219Z,604.00
2024-01-20T10:34:47.781Z,599.00
2024-01-20T10:35:47.621Z,602.00
2024-01-20T10:36:47.614Z,600.00
2024-01-20T10:37:47.624Z,597.00
2024-01-20T10:38:47.655Z,594.00
2024-01-20T10:39:47.605Z,602.00
2024-01-20T10:40:47.628Z,603.00
2024-01-20T10:41:47.631Z,600.00
2024-01-20T10:42:47.626Z,603.00
2024-01-20T10:43:47.662Z,603.00
2024-01-20T10:44:47.648Z,601.00
2024-01-20T10:45:47.640Z,604.00
2024-01-20T10:46:47.645Z,601.00
2024-01-20T10:47:47.714Z,605.00
2024-01-20T10:48:47.896Z,606.00
2024-01-20T10:49:47.741Z,601.00
2024-01-20T10:50:47.716Z,601.00
2024-01-20T10:51:47.906Z,602.00
2024-01-20T10:52:47.778Z,600.00
2024-01-20T10:53:47.858Z,602.00
2024-01-20T10:54:47.866Z,600.00
2024-01-20T10:55:47.967Z,600.00
2024-01-20T10:56:47.985Z,606.00
2024-01-20T10:57:47.998Z,601.00
2024-01-20T10:58:48.051Z,604.00
2024-01-20T10:59:48.083Z,600.00
2024-01-20T11:00:48.156Z,600.00
2024-01-20T11:01:48.158Z,601.00
2024-01-20T11:02:48.283Z,606.00
2024-01-20T11:03:48.359Z,602.00
2024-01-20T11:04:48.363Z,601.00
2024-01-20T11:05:48.566Z,601.00
2024-01-20T11:06:48.520Z,601.00
2024-01-20T11:07:48.527Z,600.00
2024-01-20T11:08:48.545Z,600.00
2024-01-20T11:09:48.620Z,603.00
2024-01-20T11:10:48.630Z,603.00
2024-01-20T11:11:48.646Z,607.00
2024-01-20T11:12:48.693Z,604.00
2024-01-20T11:13:48.760Z,606.00
2024-01-20T11:14:48.824Z,606.00
2024-01-20T11:15:48.895Z,601.00
2024-01-20T11:16:48.956Z,603.00
2024-01-20T11:17:49.028Z,603.00
2024-01-20T11:18:49.207Z,604.00
2024-01-20T11:19:49.169Z,600.00
2024-01-20T11:20:49.224Z,600.00
2024-01-20T11:21:49.301Z,604.00
2024-01-20T11:22:49.350Z,602.00
2024-01-20T11:23:49.391Z,605.00
2024-01-20T11:24:49.517Z,605.00
2024-01-20T11:25:49.546Z,603.00
2024-01-20T11:26:49.576Z,603.00
2024-01-20T11:27:49.653Z,600.00
2024-01-20T11:28:49.698Z,601.00
2024-01-20T11:29:49.747Z,603.00
2024-01-20T11:30:49.836Z,606.00
2024-01-20T11:31:49.873Z,600.00
2024-01-20T11:32:49.916Z,605.00
2024-01-20T11:33:49.983Z,600.00
2024-01-20T11:34:49.956Z,602.00
2024-01-20T11:35:49.995Z,602.00
2024-01-20T11:36:50.083Z,602.00
2024-01-20T11:37:50.092Z,600.00
2024-01-20T11:38:50.098Z,607.00
2024-01-20T11:39:50.166Z,604.00
2024-01-20T11:40:50.120Z,602.00
2024-01-20T11:41:50.127Z,605.00
2024-01-20T11:42:50.275Z,606.00
2024-01-20T11:43:50.240Z,604.00
2024-01-20T11:44:50.256Z,604.00
2024-01-20T11:45:50.329Z,607.00
2024-01-20T11:46:50.355Z,604.00
2024-01-20T11:47:50.432Z,602.00
2024-01-20T11:48:50.613Z,600.00
2024-01-20T11:49:50.552Z,603.00
2024-01-20T11:50:50.563Z,602.00
2024-01-20T11:51:50.613Z,602.00
2024-01-20T11:52:50.672Z,604.00
2024-01-20T11:53:50.739Z,608.00
2024-01-20T11:54:50.833Z,610.00
2024-01-20T11:55:50.806Z,611.00
2024-01-20T11:56:50.842Z,607.00
2024-01-20T11:57:50.907Z,606.00
2024-01-20T11:58:50.960Z,609.00
2024-01-20T11:59:51.002Z,613.00
2024-01-20T12:00:51.146Z,617.00
2024-01-20T12:01:51.117Z,615.00
2024-01-20T12:02:51.119Z,615.00
2024-01-20T12:03:51.250Z,620.00
2024-01-20T12:04:51.566Z,621.00
2024-01-20T12:05:51.583Z,625.00
2024-01-20T12:06:51.352Z,624.00
2024-01-20T12:07:51.340Z,621.00
2024-01-20T12:08:51.332Z,623.00
2024-01-20T12:09:51.354Z,625.00
2024-01-20T12:10:51.365Z,622.00
2024-01-20T12:11:51.387Z,622.00
2024-01-20T12:12:51.436Z,628.00
2024-01-20T12:13:51.467Z,626.00
2024-01-20T12:14:51.488Z,620.00
2024-01-20T12:15:51.523Z,625.00
2024-01-20T12:16:51.565Z,623.00
2024-01-20T12:17:51.849Z,626.00
2024-01-20T12:18:51.882Z,627.00
2024-01-20T12:19:51.823Z,624.00
2024-01-20T12:20:51.762Z,630.00
2024-01-20T12:21:51.815Z,625.00
2024-01-20T12:22:51.844Z,628.00
2024-01-20T12:23:51.883Z,627.00
2024-01-20T12:24:51.955Z,625.00
2024-01-20T12:25:51.994Z,629.00
2024-01-20T12:26:52.062Z,628.00
2024-01-20T12:27:52.085Z,629.00
2024-01-20T12:28:52.176Z,630.00